sensor_id;sensor_type;location;lat;lon;timestamp;P1;durP1;ratioP1;P2;durP2;ratioP2
21589;SDS011;10957;50.968;6.828;2022-09-21T00:03:41;7.15;;;6.85;;
21589;SDS011;10957;50.968;6.828;2022-09-21T00:08:43;6.30;;;6.00;;
21589;SDS011;10957;50.968;6.828;2022-09-21T00:13:45;7.20;;;6.80;;
21589;SDS011;10957;50.968;6.828;2022-09-21T00:18:46;6.70;;;6.40;;
21589;SDS011;10957;50.968;6.828;2022-09-21T00:23:47;7.00;;;6.60;;
21589;SDS011;10957;50.968;6.828;2022-09-21T00:28:52;6.25;;;5.95;;
21589;SDS011;10957;50.968;6.828;2022-09-21T00:33:54;6.40;;;6.10;;
21589;SDS011;10957;50.968;6.828;2022-09-21T00:38:58;6.28;;;5.97;;
21589;SDS011;10957;50.968;6.828;2022-09-21T00:44:22;6.32;;;6.03;;
21589;SDS011;10957;50.968;6.828;2022-09-21T00:49:24;6.30;;;6.00;;
21589;SDS011;10957;50.968;6.828;2022-09-21T00:54:28;6.80;;;6.50;;
21589;SDS011;10957;50.968;6.828;2022-09-21T00:59:36;6.45;;;6.15;;
21589;SDS011;10957;50.968;6.828;2022-09-21T01:04:38;6.40;;;6.10;;
21589;SDS011;10957;50.968;6.828;2022-09-21T01:09:39;6.20;;;5.90;;
21589;SDS011;10957;50.968;6.828;2022-09-21T01:20:29;6.82;;;6.47;;
21589;SDS011;10957;50.968;6.828;2022-09-21T01:26:04;6.20;;;5.90;;
21589;SDS011;10957;50.968;6.828;2022-09-21T01:31:10;6.20;;;5.90;;
21589;SDS011;10957;50.968;6.828;2022-09-21T01:36:20;6.20;;;5.90;;
21589;SDS011;10957;50.968;6.828;2022-09-21T01:41:26;6.25;;;5.95;;
21589;SDS011;10957;50.968;6.828;2022-09-21T01:46:29;7.15;;;6.75;;
21589;SDS011;10957;50.968;6.828;2022-09-21T01:51:31;6.22;;;5.93;;
21589;SDS011;10957;50.968;6.828;2022-09-21T01:56:44;6.20;;;5.90;;
21589;SDS011;10957;50.968;6.828;2022-09-21T02:01:52;6.20;;;5.90;;
21589;SDS011;10957;50.968;6.828;2022-09-21T02:06:56;6.20;;;5.90;;
21589;SDS011;10957;50.968;6.828;2022-09-21T02:11:57;6.40;;;6.10;;
21589;SDS011;10957;50.968;6.828;2022-09-21T02:22:31;6.05;;;5.75;;
21589;SDS011;10957;50.968;6.828;2022-09-21T02:27:44;6.00;;;5.70;;
21589;SDS011;10957;50.968;6.828;2022-09-21T02:38:22;6.20;;;5.90;;
21589;SDS011;10957;50.968;6.828;2022-09-21T02:43:43;6.25;;;5.95;;
21589;SDS011;10957;50.968;6.828;2022-09-21T02:48:56;6.60;;;6.30;;
21589;SDS011;10957;50.968;6.828;2022-09-21T02:54:01;6.30;;;6.00;;
21589;SDS011;10957;50.968;6.828;2022-09-21T02:59:04;6.55;;;6.25;;
21589;SDS011;10957;50.968;6.828;2022-09-21T03:04:05;6.30;;;6.00;;
21589;SDS011;10957;50.968;6.828;2022-09-21T03:09:06;6.43;;;6.13;;
21589;SDS011;10957;50.968;6.828;2022-09-21T03:14:07;6.30;;;6.00;;
21589;SDS011;10957;50.968;6.828;2022-09-21T03:19:08;6.50;;;6.20;;
21589;SDS011;10957;50.968;6.828;2022-09-21T03:24:09;6.00;;;5.70;;
21589;SDS011;10957;50.968;6.828;2022-09-21T03:29:10;6.00;;;5.70;;
21589;SDS011;10957;50.968;6.828;2022-09-21T03:34:10;6.30;;;6.00;;
21589;SDS011;10957;50.968;6.828;2022-09-21T03:39:11;6.10;;;5.80;;
21589;SDS011;10957;50.968;6.828;2022-09-21T03:44:12;7.13;;;6.75;;
21589;SDS011;10957;50.968;6.828;2022-09-21T03:49:15;5.97;;;5.68;;
21589;SDS011;10957;50.968;6.828;2022-09-21T03:54:16;5.40;;;5.20;;
21589;SDS011;10957;50.968;6.828;2022-09-21T03:59:17;5.30;;;5.10;;
21589;SDS011;10957;50.968;6.828;2022-09-21T04:04:18;5.50;;;5.30;;
21589;SDS011;10957;50.968;6.828;2022-09-21T04:09:19;5.45;;;5.25;;
21589;SDS011;10957;50.968;6.828;2022-09-21T04:14:20;5.57;;;5.38;;
21589;SDS011;10957;50.968;6.828;2022-09-21T04:19:22;4.90;;;4.70;;
21589;SDS011;10957;50.968;6.828;2022-09-21T04:24:23;4.80;;;4.60;;
21589;SDS011;10957;50.968;6.828;2022-09-21T04:29:23;5.20;;;5.00;;
21589;SDS011;10957;50.968;6.828;2022-09-21T04:34:24;4.80;;;4.60;;
21589;SDS011;10957;50.968;6.828;2022-09-21T04:39:25;4.95;;;4.75;;
21589;SDS011;10957;50.968;6.828;2022-09-21T04:44:26;4.60;;;4.40;;
21589;SDS011;10957;50.968;6.828;2022-09-21T04:49:27;4.70;;;4.50;;
21589;SDS011;10957;50.968;6.828;2022-09-21T04:54:28;5.20;;;5.00;;
21589;SDS011;10957;50.968;6.828;2022-09-21T04:59:29;6.60;;;6.30;;
21589;SDS011;10957;50.968;6.828;2022-09-21T05:04:29;5.10;;;4.90;;
21589;SDS011;10957;50.968;6.828;2022-09-21T05:09:30;5.13;;;4.93;;
21589;SDS011;10957;50.968;6.828;2022-09-21T05:14:49;5.00;;;4.80;;
21589;SDS011;10957;50.968;6.828;2022-09-21T05:19:51;4.82;;;4.63;;
21589;SDS011;10957;50.968;6.828;2022-09-21T05:24:52;4.40;;;4.20;;
21589;SDS011;10957;50.968;6.828;2022-09-21T05:29:53;5.30;;;5.00;;
21589;SDS011;10957;50.968;6.828;2022-09-21T05:35:10;4.70;;;4.50;;
21589;SDS011;10957;50.968;6.828;2022-09-21T05:40:13;4.72;;;4.53;;
21589;SDS011;10957;50.968;6.828;2022-09-21T05:45:14;4.50;;;4.30;;
21589;SDS011;10957;50.968;6.828;2022-09-21T05:55:43;5.65;;;5.35;;
21589;SDS011;10957;50.968;6.828;2022-09-21T06:06:07;5.18;;;4.97;;
21589;SDS011;10957;50.968;6.828;2022-09-21T06:11:08;4.78;;;4.57;;
21589;SDS011;10957;50.968;6.828;2022-09-21T06:16:12;4.60;;;4.40;;
21589;SDS011;10957;50.968;6.828;2022-09-21T06:21:13;5.10;;;4.80;;
21589;SDS011;10957;50.968;6.828;2022-09-21T06:26:14;4.70;;;4.50;;
21589;SDS011;10957;50.968;6.828;2022-09-21T06:31:14;4.10;;;3.90;;
21589;SDS011;10957;50.968;6.828;2022-09-21T06:36:15;4.80;;;4.60;;
21589;SDS011;10957;50.968;6.828;2022-09-21T06:41:16;4.63;;;4.43;;
21589;SDS011;10957;50.968;6.828;2022-09-21T06:46:17;4.65;;;4.45;;
21589;SDS011;10957;50.968;6.828;2022-09-21T06:51:18;4.95;;;4.75;;
21589;SDS011;10957;50.968;6.828;2022-09-21T06:56:20;4.80;;;4.60;;
21589;SDS011;10957;50.968;6.828;2022-09-21T07:01:21;4.72;;;4.53;;
21589;SDS011;10957;50.968;6.828;2022-09-21T07:06:23;4.93;;;4.72;;
21589;SDS011;10957;50.968;6.828;2022-09-21T07:11:24;4.95;;;4.75;;
21589;SDS011;10957;50.968;6.828;2022-09-21T07:16:26;4.70;;;4.50;;
21589;SDS011;10957;50.968;6.828;2022-09-21T07:21:27;4.53;;;4.32;;
21589;SDS011;10957;50.968;6.828;2022-09-21T07:26:28;4.53;;;4.32;;
21589;SDS011;10957;50.968;6.828;2022-09-21T07:31:28;4.78;;;4.57;;
21589;SDS011;10957;50.968;6.828;2022-09-21T07:36:29;4.60;;;4.40;;
21589;SDS011;10957;50.968;6.828;2022-09-21T07:41:30;5.13;;;4.85;;
21589;SDS011;10957;50.968;6.828;2022-09-21T07:46:31;5.13;;;4.82;;
21589;SDS011;10957;50.968;6.828;2022-09-21T07:51:32;4.30;;;4.10;;
21589;SDS011;10957;50.968;6.828;2022-09-21T07:56:32;4.90;;;4.70;;
21589;SDS011;10957;50.968;6.828;2022-09-21T08:01:36;4.10;;;3.90;;
21589;SDS011;10957;50.968;6.828;2022-09-21T08:06:38;4.65;;;4.45;;
21589;SDS011;10957;50.968;6.828;2022-09-21T08:11:39;4.20;;;4.00;;
21589;SDS011;10957;50.968;6.828;2022-09-21T08:16:45;4.43;;;4.22;;
21589;SDS011;10957;50.968;6.828;2022-09-21T08:21:49;4.28;;;4.10;;
21589;SDS011;10957;50.968;6.828;2022-09-21T08:26:50;4.00;;;3.80;;
21589;SDS011;10957;50.968;6.828;2022-09-21T08:31:51;4.88;;;4.57;;
21589;SDS011;10957;50.968;6.828;2022-09-21T08:36:55;5.03;;;4.75;;
21589;SDS011;10957;50.968;6.828;2022-09-21T08:52:41;4.55;;;4.32;;
21589;SDS011;10957;50.968;6.828;2022-09-21T08:57:51;5.65;;;5.30;;
21589;SDS011;10957;50.968;6.828;2022-09-21T09:03:37;4.40;;;4.20;;
21589;SDS011;10957;50.968;6.828;2022-09-21T09:19:54;3.85;;;3.65;;
21589;SDS011;10957;50.968;6.828;2022-09-21T09:25:01;3.95;;;3.67;;
21589;SDS011;10957;50.968;6.828;2022-09-21T09:30:15;4.60;;;4.15;;
21589;SDS011;10957;50.968;6.828;2022-09-21T09:35:29;9.95;;;4.05;;
21589;SDS011;10957;50.968;6.828;2022-09-21T09:40:39;3.20;;;3.10;;
21589;SDS011;10957;50.968;6.828;2022-09-21T09:46:58;3.35;;;3.25;;
21589;SDS011;10957;50.968;6.828;2022-09-21T09:51:44;3.33;;;3.22;;
21589;SDS011;10957;50.968;6.828;2022-09-21T09:56:45;4.07;;;3.85;;
21589;SDS011;10957;50.968;6.828;2022-09-21T10:01:47;4.20;;;3.63;;
21589;SDS011;10957;50.968;6.828;2022-09-21T10:06:59;2.78;;;2.67;;
21589;SDS011;10957;50.968;6.828;2022-09-21T10:12:14;3.38;;;3.28;;
21589;SDS011;10957;50.968;6.828;2022-09-21T10:17:23;4.70;;;3.72;;
21589;SDS011;10957;50.968;6.828;2022-09-21T10:22:25;3.08;;;2.97;;
21589;SDS011;10957;50.968;6.828;2022-09-21T10:27:27;3.83;;;3.63;;
21589;SDS011;10957;50.968;6.828;2022-09-21T10:32:30;3.30;;;3.20;;
21589;SDS011;10957;50.968;6.828;2022-09-21T10:37:38;4.47;;;4.25;;
21589;SDS011;10957;50.968;6.828;2022-09-21T10:42:41;3.17;;;3.05;;
21589;SDS011;10957;50.968;6.828;2022-09-21T10:47:53;4.53;;;3.85;;
21589;SDS011;10957;50.968;6.828;2022-09-21T10:53:30;3.92;;;3.72;;
21589;SDS011;10957;50.968;6.828;2022-09-21T10:58:34;3.30;;;3.20;;
21589;SDS011;10957;50.968;6.828;2022-09-21T11:03:39;3.15;;;3.03;;
21589;SDS011;10957;50.968;6.828;2022-09-21T11:09:02;2.60;;;2.50;;
21589;SDS011;10957;50.968;6.828;2022-09-21T11:19:43;3.30;;;3.10;;
21589;SDS011;10957;50.968;6.828;2022-09-21T11:30:24;2.60;;;2.50;;
21589;SDS011;10957;50.968;6.828;2022-09-21T11:36:07;2.63;;;2.53;;
21589;SDS011;10957;50.968;6.828;2022-09-21T11:46:46;2.38;;;2.28;;
21589;SDS011;10957;50.968;6.828;2022-09-21T11:57:44;2.50;;;2.40;;
21589;SDS011;10957;50.968;6.828;2022-09-21T12:08:43;2.88;;;2.78;;
21589;SDS011;10957;50.968;6.828;2022-09-21T12:24:18;2.50;;;2.40;;
21589;SDS011;10957;50.968;6.828;2022-09-21T12:29:24;2.40;;;2.30;;
21589;SDS011;10957;50.968;6.828;2022-09-21T12:34:51;2.20;;;2.10;;
21589;SDS011;10957;50.968;6.828;2022-09-21T12:40:05;2.40;;;2.30;;
21589;SDS011;10957;50.968;6.828;2022-09-21T12:45:24;2.15;;;2.05;;
21589;SDS011;10957;50.968;6.828;2022-09-21T13:06:41;2.70;;;2.60;;
21589;SDS011;10957;50.968;6.828;2022-09-21T13:12:08;2.40;;;2.30;;
21589;SDS011;10957;50.968;6.828;2022-09-21T13:17:18;2.78;;;2.67;;
21589;SDS011;10957;50.968;6.828;2022-09-21T13:22:22;31.65;;;3.30;;
21589;SDS011;10957;50.968;6.828;2022-09-21T13:27:54;2.83;;;2.72;;
21589;SDS011;10957;50.968;6.828;2022-09-21T13:33:00;2.42;;;2.33;;
21589;SDS011;10957;50.968;6.828;2022-09-21T13:48:50;2.40;;;2.30;;
21589;SDS011;10957;50.968;6.828;2022-09-21T13:53:53;2.65;;;2.55;;
21589;SDS011;10957;50.968;6.828;2022-09-21T13:58:56;2.75;;;2.65;;
21589;SDS011;10957;50.968;6.828;2022-09-21T14:03:59;7.18;;;3.30;;
21589;SDS011;10957;50.968;6.828;2022-09-21T14:09:04;2.55;;;2.45;;
21589;SDS011;10957;50.968;6.828;2022-09-21T14:24:42;2.60;;;2.50;;
21589;SDS011;10957;50.968;6.828;2022-09-21T14:29:49;2.85;;;2.75;;
21589;SDS011;10957;50.968;6.828;2022-09-21T14:35:07;2.80;;;2.70;;
21589;SDS011;10957;50.968;6.828;2022-09-21T14:40:16;2.90;;;2.80;;
21589;SDS011;10957;50.968;6.828;2022-09-21T14:45:24;3.63;;;3.45;;
21589;SDS011;10957;50.968;6.828;2022-09-21T14:50:38;3.35;;;3.25;;
21589;SDS011;10957;50.968;6.828;2022-09-21T14:55:49;2.70;;;2.60;;
21589;SDS011;10957;50.968;6.828;2022-09-21T15:01:33;13.70;;;3.53;;
21589;SDS011;10957;50.968;6.828;2022-09-21T15:06:43;2.95;;;2.85;;
21589;SDS011;10957;50.968;6.828;2022-09-21T15:12:52;3.17;;;3.08;;
21589;SDS011;10957;50.968;6.828;2022-09-21T15:17:59;3.53;;;3.42;;
21589;SDS011;10957;50.968;6.828;2022-09-21T15:23:01;2.97;;;2.88;;
21589;SDS011;10957;50.968;6.828;2022-09-21T15:28:04;3.10;;;3.00;;
21589;SDS011;10957;50.968;6.828;2022-09-21T15:33:08;2.90;;;2.80;;
21589;SDS011;10957;50.968;6.828;2022-09-21T15:38:31;2.75;;;2.65;;
21589;SDS011;10957;50.968;6.828;2022-09-21T15:43:35;2.97;;;2.88;;
21589;SDS011;10957;50.968;6.828;2022-09-21T15:48:39;2.97;;;2.88;;
21589;SDS011;10957;50.968;6.828;2022-09-21T15:53:43;2.50;;;2.40;;
21589;SDS011;10957;50.968;6.828;2022-09-21T15:58:48;3.15;;;3.05;;
21589;SDS011;10957;50.968;6.828;2022-09-21T16:04:03;3.00;;;2.90;;
21589;SDS011;10957;50.968;6.828;2022-09-21T16:14:25;3.55;;;3.30;;
21589;SDS011;10957;50.968;6.828;2022-09-21T16:24:50;3.22;;;3.03;;
21589;SDS011;10957;50.968;6.828;2022-09-21T16:29:57;3.10;;;3.00;;
21589;SDS011;10957;50.968;6.828;2022-09-21T16:40:30;2.60;;;2.50;;
21589;SDS011;10957;50.968;6.828;2022-09-21T16:45:31;3.95;;;2.80;;
21589;SDS011;10957;50.968;6.828;2022-09-21T16:50:34;2.60;;;2.50;;
21589;SDS011;10957;50.968;6.828;2022-09-21T16:55:35;2.80;;;2.70;;
21589;SDS011;10957;50.968;6.828;2022-09-21T17:00:38;2.80;;;2.70;;
21589;SDS011;10957;50.968;6.828;2022-09-21T17:05:41;2.92;;;2.83;;
21589;SDS011;10957;50.968;6.828;2022-09-21T17:10:43;2.60;;;2.50;;
21589;SDS011;10957;50.968;6.828;2022-09-21T17:15:45;2.70;;;2.60;;
21589;SDS011;10957;50.968;6.828;2022-09-21T17:20:47;2.42;;;2.33;;
21589;SDS011;10957;50.968;6.828;2022-09-21T17:25:48;2.80;;;2.70;;
21589;SDS011;10957;50.968;6.828;2022-09-21T17:30:49;2.60;;;2.50;;
21589;SDS011;10957;50.968;6.828;2022-09-21T17:35:50;2.70;;;2.60;;
21589;SDS011;10957;50.968;6.828;2022-09-21T17:40:54;2.58;;;2.47;;
21589;SDS011;10957;50.968;6.828;2022-09-21T17:45:57;2.67;;;2.58;;
21589;SDS011;10957;50.968;6.828;2022-09-21T17:51:07;2.80;;;2.70;;
21589;SDS011;10957;50.968;6.828;2022-09-21T18:01:39;2.50;;;2.40;;
21589;SDS011;10957;50.968;6.828;2022-09-21T18:06:43;3.20;;;3.10;;
21589;SDS011;10957;50.968;6.828;2022-09-21T18:12:00;2.63;;;2.53;;
21589;SDS011;10957;50.968;6.828;2022-09-21T18:28:10;2.70;;;2.60;;
21589;SDS011;10957;50.968;6.828;2022-09-21T18:38:34;2.50;;;2.40;;
21589;SDS011;10957;50.968;6.828;2022-09-21T18:43:47;2.95;;;2.70;;
21589;SDS011;10957;50.968;6.828;2022-09-21T18:54:19;2.60;;;2.50;;
21589;SDS011;10957;50.968;6.828;2022-09-21T18:59:21;2.60;;;2.50;;
21589;SDS011;10957;50.968;6.828;2022-09-21T19:04:22;2.55;;;2.45;;
21589;SDS011;10957;50.968;6.828;2022-09-21T19:20:14;3.75;;;3.50;;
21589;SDS011;10957;50.968;6.828;2022-09-21T19:25:28;4.10;;;3.85;;
21589;SDS011;10957;50.968;6.828;2022-09-21T19:30:46;3.17;;;3.08;;
21589;SDS011;10957;50.968;6.828;2022-09-21T19:35:52;4.07;;;3.88;;
21589;SDS011;10957;50.968;6.828;2022-09-21T19:40:54;3.92;;;3.72;;
21589;SDS011;10957;50.968;6.828;2022-09-21T19:51:51;3.50;;;3.40;;
21589;SDS011;10957;50.968;6.828;2022-09-21T19:56:57;3.60;;;3.50;;
21589;SDS011;10957;50.968;6.828;2022-09-21T20:02:30;3.70;;;3.60;;
21589;SDS011;10957;50.968;6.828;2022-09-21T20:23:14;4.00;;;3.80;;
21589;SDS011;10957;50.968;6.828;2022-09-21T20:28:15;4.15;;;3.95;;
21589;SDS011;10957;50.968;6.828;2022-09-21T20:33:20;4.88;;;4.57;;
21589;SDS011;10957;50.968;6.828;2022-09-21T20:38:23;4.20;;;4.00;;
21589;SDS011;10957;50.968;6.828;2022-09-21T20:43:23;4.40;;;4.20;;
21589;SDS011;10957;50.968;6.828;2022-09-21T20:48:25;4.95;;;4.65;;
21589;SDS011;10957;50.968;6.828;2022-09-21T20:53:25;4.60;;;4.25;;
21589;SDS011;10957;50.968;6.828;2022-09-21T20:58:26;5.47;;;5.18;;
21589;SDS011;10957;50.968;6.828;2022-09-21T21:03:28;5.03;;;4.82;;
21589;SDS011;10957;50.968;6.828;2022-09-21T21:08:29;4.53;;;4.32;;
21589;SDS011;10957;50.968;6.828;2022-09-21T21:13:30;4.90;;;4.65;;
21589;SDS011;10957;50.968;6.828;2022-09-21T21:18:31;4.85;;;4.65;;
21589;SDS011;10957;50.968;6.828;2022-09-21T21:23:31;5.80;;;5.45;;
21589;SDS011;10957;50.968;6.828;2022-09-21T21:28:52;4.70;;;4.50;;
21589;SDS011;10957;50.968;6.828;2022-09-21T21:33:53;5.13;;;4.93;;
21589;SDS011;10957;50.968;6.828;2022-09-21T21:38:56;5.10;;;4.90;;
21589;SDS011;10957;50.968;6.828;2022-09-21T21:43:57;5.05;;;4.85;;
21589;SDS011;10957;50.968;6.828;2022-09-21T21:48:58;4.78;;;4.57;;
21589;SDS011;10957;50.968;6.828;2022-09-21T21:53:59;5.93;;;5.63;;
21589;SDS011;10957;50.968;6.828;2022-09-21T21:59:00;5.35;;;5.15;;
21589;SDS011;10957;50.968;6.828;2022-09-21T22:04:01;5.43;;;5.18;;
21589;SDS011;10957;50.968;6.828;2022-09-21T22:09:02;4.50;;;4.30;;
21589;SDS011;10957;50.968;6.828;2022-09-21T22:14:05;5.15;;;4.85;;
21589;SDS011;10957;50.968;6.828;2022-09-21T22:19:09;5.25;;;4.95;;
21589;SDS011;10957;50.968;6.828;2022-09-21T22:24:10;5.00;;;4.80;;
21589;SDS011;10957;50.968;6.828;2022-09-21T22:29:12;5.05;;;4.85;;
21589;SDS011;10957;50.968;6.828;2022-09-21T22:34:14;4.97;;;4.78;;
21589;SDS011;10957;50.968;6.828;2022-09-21T22:39:15;5.90;;;5.53;;
21589;SDS011;10957;50.968;6.828;2022-09-21T22:44:16;5.00;;;4.80;;
21589;SDS011;10957;50.968;6.828;2022-09-21T22:49:16;5.20;;;5.00;;
21589;SDS011;10957;50.968;6.828;2022-09-21T22:54:17;5.22;;;5.03;;
21589;SDS011;10957;50.968;6.828;2022-09-21T22:59:18;5.60;;;5.30;;
21589;SDS011;10957;50.968;6.828;2022-09-21T23:04:18;4.80;;;4.60;;
21589;SDS011;10957;50.968;6.828;2022-09-21T23:09:20;4.88;;;4.68;;
21589;SDS011;10957;50.968;6.828;2022-09-21T23:14:21;5.32;;;5.13;;
21589;SDS011;10957;50.968;6.828;2022-09-21T23:19:22;5.15;;;4.95;;
21589;SDS011;10957;50.968;6.828;2022-09-21T23:24:23;5.38;;;5.07;;
21589;SDS011;10957;50.968;6.828;2022-09-21T23:29:24;9.23;;;5.32;;
21589;SDS011;10957;50.968;6.828;2022-09-21T23:34:25;5.20;;;5.00;;
21589;SDS011;10957;50.968;6.828;2022-09-21T23:39:25;5.28;;;5.05;;
21589;SDS011;10957;50.968;6.828;2022-09-21T23:44:26;4.93;;;4.72;;
21589;SDS011;10957;50.968;6.828;2022-09-21T23:49:27;5.72;;;5.43;;
21589;SDS011;10957;50.968;6.828;2022-09-21T23:54:27;6.05;;;5.70;;
21589;SDS011;10957;50.968;6.828;2022-09-21T23:59:28;5.20;;;5.00;;
